sensor_id;sensor_type;location;lat;lon;timestamp;P1;durP1;ratioP1;P2;durP2;ratioP2
8397;SDS011;4236;54.504;9.588;2022-10-19T00:02:00;34.23;;;32.10;;
8397;SDS011;4236;54.504;9.588;2022-10-19T00:04:28;35.57;;;33.20;;
8397;SDS011;4236;54.504;9.588;2022-10-19T00:06:56;35.53;;;32.33;;
8397;SDS011;4236;54.504;9.588;2022-10-19T00:09:25;35.83;;;32.93;;
8397;SDS011;4236;54.504;9.588;2022-10-19T00:11:52;33.93;;;31.33;;
8397;SDS011;4236;54.504;9.588;2022-10-19T00:14:21;33.10;;;31.03;;
8397;SDS011;4236;54.504;9.588;2022-10-19T00:16:50;34.80;;;32.00;;
8397;SDS011;4236;54.504;9.588;2022-10-19T00:19:21;36.90;;;33.37;;
8397;SDS011;4236;54.504;9.588;2022-10-19T00:21:51;34.13;;;31.90;;
8397;SDS011;4236;54.504;9.588;2022-10-19T00:24:19;34.90;;;32.60;;
8397;SDS011;4236;54.504;9.588;2022-10-19T00:26:48;34.60;;;32.10;;
8397;SDS011;4236;54.504;9.588;2022-10-19T00:29:16;34.60;;;32.47;;
8397;SDS011;4236;54.504;9.588;2022-10-19T00:31:44;33.80;;;31.70;;
8397;SDS011;4236;54.504;9.588;2022-10-19T00:34:11;37.23;;;34.27;;
8397;SDS011;4236;54.504;9.588;2022-10-19T00:36:39;35.50;;;33.00;;
8397;SDS011;4236;54.504;9.588;2022-10-19T00:39:07;36.50;;;33.87;;
8397;SDS011;4236;54.504;9.588;2022-10-19T00:41:37;36.30;;;33.43;;
8397;SDS011;4236;54.504;9.588;2022-10-19T00:47:08;36.30;;;33.67;;
8397;SDS011;4236;54.504;9.588;2022-10-19T00:49:36;34.97;;;32.90;;
8397;SDS011;4236;54.504;9.588;2022-10-19T00:52:10;35.73;;;32.87;;
8397;SDS011;4236;54.504;9.588;2022-10-19T00:54:41;35.10;;;32.80;;
8397;SDS011;4236;54.504;9.588;2022-10-19T00:57:09;36.07;;;33.87;;
8397;SDS011;4236;54.504;9.588;2022-10-19T00:59:38;36.07;;;33.70;;
8397;SDS011;4236;54.504;9.588;2022-10-19T01:02:08;35.00;;;32.80;;
8397;SDS011;4236;54.504;9.588;2022-10-19T01:04:36;35.50;;;32.83;;
8397;SDS011;4236;54.504;9.588;2022-10-19T01:07:06;37.47;;;34.37;;
8397;SDS011;4236;54.504;9.588;2022-10-19T01:09:35;34.67;;;32.57;;
8397;SDS011;4236;54.504;9.588;2022-10-19T01:12:03;35.03;;;32.83;;
8397;SDS011;4236;54.504;9.588;2022-10-19T01:14:39;36.20;;;33.57;;
8397;SDS011;4236;54.504;9.588;2022-10-19T01:17:24;35.63;;;33.60;;
8397;SDS011;4236;54.504;9.588;2022-10-19T01:23:17;36.63;;;34.30;;
8397;SDS011;4236;54.504;9.588;2022-10-19T01:26:01;36.23;;;33.93;;
8397;SDS011;4236;54.504;9.588;2022-10-19T01:28:43;37.67;;;34.80;;
8397;SDS011;4236;54.504;9.588;2022-10-19T01:31:22;35.20;;;33.10;;
8397;SDS011;4236;54.504;9.588;2022-10-19T01:33:54;34.70;;;32.70;;
8397;SDS011;4236;54.504;9.588;2022-10-19T01:36:31;35.90;;;33.40;;
8397;SDS011;4236;54.504;9.588;2022-10-19T01:39:07;35.33;;;32.80;;
8397;SDS011;4236;54.504;9.588;2022-10-19T01:41:40;35.97;;;33.47;;
8397;SDS011;4236;54.504;9.588;2022-10-19T01:44:15;36.37;;;33.83;;
8397;SDS011;4236;54.504;9.588;2022-10-19T01:46:49;35.67;;;33.20;;
8397;SDS011;4236;54.504;9.588;2022-10-19T01:49:23;36.93;;;34.63;;
8397;SDS011;4236;54.504;9.588;2022-10-19T01:51:56;38.27;;;34.37;;
8397;SDS011;4236;54.504;9.588;2022-10-19T01:54:27;35.57;;;32.93;;
8397;SDS011;4236;54.504;9.588;2022-10-19T01:57:00;37.77;;;33.40;;
8397;SDS011;4236;54.504;9.588;2022-10-19T01:59:32;34.33;;;32.03;;
8397;SDS011;4236;54.504;9.588;2022-10-19T02:02:02;37.27;;;33.60;;
8397;SDS011;4236;54.504;9.588;2022-10-19T02:04:30;36.40;;;33.57;;
8397;SDS011;4236;54.504;9.588;2022-10-19T02:07:00;36.43;;;33.53;;
8397;SDS011;4236;54.504;9.588;2022-10-19T02:09:29;37.47;;;34.63;;
8397;SDS011;4236;54.504;9.588;2022-10-19T02:11:58;35.40;;;32.80;;
8397;SDS011;4236;54.504;9.588;2022-10-19T02:14:30;34.23;;;32.20;;
8397;SDS011;4236;54.504;9.588;2022-10-19T02:17:04;34.07;;;32.17;;
8397;SDS011;4236;54.504;9.588;2022-10-19T02:19:34;34.70;;;32.17;;
8397;SDS011;4236;54.504;9.588;2022-10-19T02:22:02;34.27;;;32.00;;
8397;SDS011;4236;54.504;9.588;2022-10-19T02:24:30;33.73;;;31.73;;
8397;SDS011;4236;54.504;9.588;2022-10-19T02:26:58;34.47;;;31.70;;
8397;SDS011;4236;54.504;9.588;2022-10-19T02:29:26;35.10;;;32.37;;
8397;SDS011;4236;54.504;9.588;2022-10-19T02:31:54;35.17;;;32.53;;
8397;SDS011;4236;54.504;9.588;2022-10-19T02:34:23;34.00;;;31.67;;
8397;SDS011;4236;54.504;9.588;2022-10-19T02:36:51;36.07;;;33.53;;
8397;SDS011;4236;54.504;9.588;2022-10-19T02:39:19;36.80;;;33.20;;
8397;SDS011;4236;54.504;9.588;2022-10-19T02:41:48;35.47;;;32.43;;
8397;SDS011;4236;54.504;9.588;2022-10-19T02:44:19;35.80;;;32.57;;
8397;SDS011;4236;54.504;9.588;2022-10-19T02:46:51;35.03;;;32.03;;
8397;SDS011;4236;54.504;9.588;2022-10-19T02:49:26;34.77;;;31.50;;
8397;SDS011;4236;54.504;9.588;2022-10-19T02:51:56;35.50;;;33.13;;
8397;SDS011;4236;54.504;9.588;2022-10-19T02:54:25;34.13;;;31.73;;
8397;SDS011;4236;54.504;9.588;2022-10-19T02:56:54;34.60;;;32.03;;
8397;SDS011;4236;54.504;9.588;2022-10-19T02:59:22;35.10;;;32.20;;
8397;SDS011;4236;54.504;9.588;2022-10-19T03:01:51;34.90;;;32.20;;
8397;SDS011;4236;54.504;9.588;2022-10-19T03:04:18;37.30;;;34.00;;
8397;SDS011;4236;54.504;9.588;2022-10-19T03:06:47;36.10;;;33.10;;
8397;SDS011;4236;54.504;9.588;2022-10-19T03:09:15;35.03;;;32.50;;
8397;SDS011;4236;54.504;9.588;2022-10-19T03:11:42;35.20;;;32.10;;
8397;SDS011;4236;54.504;9.588;2022-10-19T03:14:10;36.27;;;33.27;;
8397;SDS011;4236;54.504;9.588;2022-10-19T03:16:38;34.63;;;31.83;;
8397;SDS011;4236;54.504;9.588;2022-10-19T03:19:06;35.40;;;32.60;;
8397;SDS011;4236;54.504;9.588;2022-10-19T03:21:33;35.47;;;32.33;;
8397;SDS011;4236;54.504;9.588;2022-10-19T03:24:02;36.07;;;32.53;;
8397;SDS011;4236;54.504;9.588;2022-10-19T03:26:30;33.63;;;31.33;;
8397;SDS011;4236;54.504;9.588;2022-10-19T03:28:58;34.93;;;32.50;;
8397;SDS011;4236;54.504;9.588;2022-10-19T03:31:26;34.87;;;31.80;;
8397;SDS011;4236;54.504;9.588;2022-10-19T03:33:53;34.80;;;32.10;;
8397;SDS011;4236;54.504;9.588;2022-10-19T03:36:21;35.30;;;32.10;;
8397;SDS011;4236;54.504;9.588;2022-10-19T03:38:50;33.80;;;30.90;;
8397;SDS011;4236;54.504;9.588;2022-10-19T03:41:20;36.80;;;33.67;;
8397;SDS011;4236;54.504;9.588;2022-10-19T03:43:49;35.03;;;32.33;;
8397;SDS011;4236;54.504;9.588;2022-10-19T03:46:17;36.13;;;32.37;;
8397;SDS011;4236;54.504;9.588;2022-10-19T03:48:45;35.07;;;32.43;;
8397;SDS011;4236;54.504;9.588;2022-10-19T03:51:13;36.93;;;33.40;;
8397;SDS011;4236;54.504;9.588;2022-10-19T03:53:43;35.20;;;32.30;;
8397;SDS011;4236;54.504;9.588;2022-10-19T03:56:12;34.60;;;31.80;;
8397;SDS011;4236;54.504;9.588;2022-10-19T03:58:43;37.03;;;33.23;;
8397;SDS011;4236;54.504;9.588;2022-10-19T04:01:13;35.40;;;32.57;;
8397;SDS011;4236;54.504;9.588;2022-10-19T04:03:42;35.03;;;32.13;;
8397;SDS011;4236;54.504;9.588;2022-10-19T04:06:11;35.90;;;32.40;;
8397;SDS011;4236;54.504;9.588;2022-10-19T04:08:47;34.97;;;32.37;;
8397;SDS011;4236;54.504;9.588;2022-10-19T04:11:15;35.97;;;32.87;;
8397;SDS011;4236;54.504;9.588;2022-10-19T04:13:47;37.40;;;33.47;;
8397;SDS011;4236;54.504;9.588;2022-10-19T04:16:15;35.17;;;31.53;;
8397;SDS011;4236;54.504;9.588;2022-10-19T04:18:44;34.30;;;31.50;;
8397;SDS011;4236;54.504;9.588;2022-10-19T04:21:18;34.20;;;31.40;;
8397;SDS011;4236;54.504;9.588;2022-10-19T04:23:48;35.97;;;32.77;;
8397;SDS011;4236;54.504;9.588;2022-10-19T04:26:17;37.27;;;33.40;;
8397;SDS011;4236;54.504;9.588;2022-10-19T04:28:44;35.90;;;32.70;;
8397;SDS011;4236;54.504;9.588;2022-10-19T04:31:13;37.10;;;33.30;;
8397;SDS011;4236;54.504;9.588;2022-10-19T04:33:41;35.07;;;32.47;;
8397;SDS011;4236;54.504;9.588;2022-10-19T04:36:10;36.90;;;33.53;;
8397;SDS011;4236;54.504;9.588;2022-10-19T04:38:38;33.87;;;31.47;;
8397;SDS011;4236;54.504;9.588;2022-10-19T04:41:06;35.57;;;32.50;;
8397;SDS011;4236;54.504;9.588;2022-10-19T04:43:36;36.67;;;33.63;;
8397;SDS011;4236;54.504;9.588;2022-10-19T04:46:04;35.43;;;32.50;;
8397;SDS011;4236;54.504;9.588;2022-10-19T04:48:35;35.93;;;32.80;;
8397;SDS011;4236;54.504;9.588;2022-10-19T04:51:04;43.27;;;34.00;;
8397;SDS011;4236;54.504;9.588;2022-10-19T04:53:32;34.23;;;31.70;;
8397;SDS011;4236;54.504;9.588;2022-10-19T04:56:03;35.83;;;33.00;;
8397;SDS011;4236;54.504;9.588;2022-10-19T04:58:32;36.60;;;33.03;;
8397;SDS011;4236;54.504;9.588;2022-10-19T05:01:05;35.27;;;32.13;;
8397;SDS011;4236;54.504;9.588;2022-10-19T05:03:35;35.63;;;32.20;;
8397;SDS011;4236;54.504;9.588;2022-10-19T05:06:03;34.83;;;32.13;;
8397;SDS011;4236;54.504;9.588;2022-10-19T05:08:31;36.90;;;33.70;;
8397;SDS011;4236;54.504;9.588;2022-10-19T05:11:02;39.40;;;34.90;;
8397;SDS011;4236;54.504;9.588;2022-10-19T05:13:31;36.90;;;33.93;;
8397;SDS011;4236;54.504;9.588;2022-10-19T05:16:00;35.57;;;32.40;;
8397;SDS011;4236;54.504;9.588;2022-10-19T05:18:29;36.00;;;33.00;;
8397;SDS011;4236;54.504;9.588;2022-10-19T05:21:02;37.47;;;33.90;;
8397;SDS011;4236;54.504;9.588;2022-10-19T05:23:31;37.27;;;34.17;;
8397;SDS011;4236;54.504;9.588;2022-10-19T05:25:59;37.57;;;34.50;;
8397;SDS011;4236;54.504;9.588;2022-10-19T05:28:28;37.50;;;34.70;;
8397;SDS011;4236;54.504;9.588;2022-10-19T05:31:03;37.60;;;34.80;;
8397;SDS011;4236;54.504;9.588;2022-10-19T05:33:31;36.20;;;33.30;;
8397;SDS011;4236;54.504;9.588;2022-10-19T05:35:59;36.73;;;33.70;;
8397;SDS011;4236;54.504;9.588;2022-10-19T05:38:36;38.30;;;34.63;;
8397;SDS011;4236;54.504;9.588;2022-10-19T05:41:04;38.47;;;35.50;;
8397;SDS011;4236;54.504;9.588;2022-10-19T05:43:32;36.40;;;33.90;;
8397;SDS011;4236;54.504;9.588;2022-10-19T05:46:01;37.97;;;34.57;;
8397;SDS011;4236;54.504;9.588;2022-10-19T05:48:30;38.53;;;34.33;;
8397;SDS011;4236;54.504;9.588;2022-10-19T05:50:59;37.23;;;34.10;;
8397;SDS011;4236;54.504;9.588;2022-10-19T05:53:27;35.40;;;33.07;;
8397;SDS011;4236;54.504;9.588;2022-10-19T05:55:56;34.97;;;32.50;;
8397;SDS011;4236;54.504;9.588;2022-10-19T05:58:24;35.33;;;32.53;;
8397;SDS011;4236;54.504;9.588;2022-10-19T06:00:52;34.50;;;31.90;;
8397;SDS011;4236;54.504;9.588;2022-10-19T06:03:21;37.07;;;33.30;;
8397;SDS011;4236;54.504;9.588;2022-10-19T06:05:50;34.50;;;32.23;;
8397;SDS011;4236;54.504;9.588;2022-10-19T06:08:18;34.60;;;31.90;;
8397;SDS011;4236;54.504;9.588;2022-10-19T06:10:47;32.50;;;30.30;;
8397;SDS011;4236;54.504;9.588;2022-10-19T06:13:18;35.37;;;32.00;;
8397;SDS011;4236;54.504;9.588;2022-10-19T06:15:48;32.97;;;30.80;;
8397;SDS011;4236;54.504;9.588;2022-10-19T06:18:17;34.50;;;32.10;;
8397;SDS011;4236;54.504;9.588;2022-10-19T06:20:44;34.10;;;31.53;;
8397;SDS011;4236;54.504;9.588;2022-10-19T06:23:12;32.90;;;30.70;;
8397;SDS011;4236;54.504;9.588;2022-10-19T06:25:39;32.97;;;30.50;;
8397;SDS011;4236;54.504;9.588;2022-10-19T06:28:07;34.60;;;31.90;;
8397;SDS011;4236;54.504;9.588;2022-10-19T06:30:38;33.33;;;30.80;;
8397;SDS011;4236;54.504;9.588;2022-10-19T06:33:06;34.20;;;31.23;;
8397;SDS011;4236;54.504;9.588;2022-10-19T06:35:34;33.60;;;30.77;;
8397;SDS011;4236;54.504;9.588;2022-10-19T06:38:01;32.47;;;30.07;;
8397;SDS011;4236;54.504;9.588;2022-10-19T06:40:29;33.07;;;30.67;;
8397;SDS011;4236;54.504;9.588;2022-10-19T06:42:57;33.47;;;31.27;;
8397;SDS011;4236;54.504;9.588;2022-10-19T06:45:24;32.30;;;30.30;;
8397;SDS011;4236;54.504;9.588;2022-10-19T06:47:53;32.70;;;30.60;;
8397;SDS011;4236;54.504;9.588;2022-10-19T06:50:21;34.73;;;31.80;;
8397;SDS011;4236;54.504;9.588;2022-10-19T06:52:48;33.03;;;30.90;;
8397;SDS011;4236;54.504;9.588;2022-10-19T06:55:16;33.13;;;30.60;;
8397;SDS011;4236;54.504;9.588;2022-10-19T06:57:44;34.20;;;31.80;;
8397;SDS011;4236;54.504;9.588;2022-10-19T07:00:12;33.87;;;31.47;;
8397;SDS011;4236;54.504;9.588;2022-10-19T07:02:40;33.73;;;31.20;;
8397;SDS011;4236;54.504;9.588;2022-10-19T07:05:09;32.63;;;30.23;;
8397;SDS011;4236;54.504;9.588;2022-10-19T07:07:37;34.33;;;31.50;;
8397;SDS011;4236;54.504;9.588;2022-10-19T07:10:05;36.07;;;33.07;;
8397;SDS011;4236;54.504;9.588;2022-10-19T07:12:33;34.33;;;31.83;;
8397;SDS011;4236;54.504;9.588;2022-10-19T07:15:00;36.20;;;32.80;;
8397;SDS011;4236;54.504;9.588;2022-10-19T07:17:28;35.50;;;32.87;;
8397;SDS011;4236;54.504;9.588;2022-10-19T07:19:56;36.43;;;33.63;;
8397;SDS011;4236;54.504;9.588;2022-10-19T07:22:24;36.13;;;33.23;;
8397;SDS011;4236;54.504;9.588;2022-10-19T07:24:53;35.00;;;32.40;;
8397;SDS011;4236;54.504;9.588;2022-10-19T07:27:21;34.13;;;31.70;;
8397;SDS011;4236;54.504;9.588;2022-10-19T07:29:48;36.10;;;33.00;;
8397;SDS011;4236;54.504;9.588;2022-10-19T07:32:16;34.60;;;32.37;;
8397;SDS011;4236;54.504;9.588;2022-10-19T07:34:43;36.47;;;33.57;;
8397;SDS011;4236;54.504;9.588;2022-10-19T07:37:11;35.20;;;32.63;;
8397;SDS011;4236;54.504;9.588;2022-10-19T07:39:40;35.57;;;33.03;;
8397;SDS011;4236;54.504;9.588;2022-10-19T07:42:07;36.00;;;33.40;;
8397;SDS011;4236;54.504;9.588;2022-10-19T07:44:35;36.63;;;34.00;;
8397;SDS011;4236;54.504;9.588;2022-10-19T07:47:03;37.43;;;34.60;;
8397;SDS011;4236;54.504;9.588;2022-10-19T07:49:31;37.57;;;35.03;;
8397;SDS011;4236;54.504;9.588;2022-10-19T07:51:58;37.07;;;34.60;;
8397;SDS011;4236;54.504;9.588;2022-10-19T07:54:26;34.60;;;32.53;;
8397;SDS011;4236;54.504;9.588;2022-10-19T07:56:55;37.30;;;34.80;;
8397;SDS011;4236;54.504;9.588;2022-10-19T07:59:22;36.37;;;33.53;;
8397;SDS011;4236;54.504;9.588;2022-10-19T08:01:50;37.40;;;34.87;;
8397;SDS011;4236;54.504;9.588;2022-10-19T08:04:19;35.60;;;33.40;;
8397;SDS011;4236;54.504;9.588;2022-10-19T08:07:07;34.67;;;32.70;;
8397;SDS011;4236;54.504;9.588;2022-10-19T08:09:35;36.53;;;34.07;;
8397;SDS011;4236;54.504;9.588;2022-10-19T08:12:19;34.27;;;32.27;;
8397;SDS011;4236;54.504;9.588;2022-10-19T08:14:47;35.87;;;33.50;;
8397;SDS011;4236;54.504;9.588;2022-10-19T08:17:14;37.60;;;35.03;;
8397;SDS011;4236;54.504;9.588;2022-10-19T08:19:43;35.90;;;33.90;;
8397;SDS011;4236;54.504;9.588;2022-10-19T08:22:10;37.00;;;34.80;;
8397;SDS011;4236;54.504;9.588;2022-10-19T08:24:38;38.20;;;36.10;;
8397;SDS011;4236;54.504;9.588;2022-10-19T08:27:06;38.03;;;35.73;;
8397;SDS011;4236;54.504;9.588;2022-10-19T08:29:35;39.77;;;37.77;;
8397;SDS011;4236;54.504;9.588;2022-10-19T08:32:02;37.07;;;34.67;;
8397;SDS011;4236;54.504;9.588;2022-10-19T08:34:30;35.07;;;33.27;;
8397;SDS011;4236;54.504;9.588;2022-10-19T08:36:58;35.30;;;33.30;;
8397;SDS011;4236;54.504;9.588;2022-10-19T08:39:45;36.60;;;34.43;;
8397;SDS011;4236;54.504;9.588;2022-10-19T08:42:13;38.00;;;35.90;;
8397;SDS011;4236;54.504;9.588;2022-10-19T08:44:52;35.70;;;33.90;;
8397;SDS011;4236;54.504;9.588;2022-10-19T08:47:33;36.10;;;34.10;;
8397;SDS011;4236;54.504;9.588;2022-10-19T08:50:16;35.80;;;33.67;;
8397;SDS011;4236;54.504;9.588;2022-10-19T08:52:47;34.57;;;32.43;;
8397;SDS011;4236;54.504;9.588;2022-10-19T08:55:21;34.90;;;32.97;;
8397;SDS011;4236;54.504;9.588;2022-10-19T08:57:58;35.63;;;33.93;;
8397;SDS011;4236;54.504;9.588;2022-10-19T09:00:36;33.90;;;32.43;;
8397;SDS011;4236;54.504;9.588;2022-10-19T09:03:13;36.03;;;34.10;;
8397;SDS011;4236;54.504;9.588;2022-10-19T09:06:07;34.50;;;32.63;;
8397;SDS011;4236;54.504;9.588;2022-10-19T09:08:45;34.60;;;33.10;;
8397;SDS011;4236;54.504;9.588;2022-10-19T09:11:13;34.47;;;32.97;;
8397;SDS011;4236;54.504;9.588;2022-10-19T09:13:45;34.70;;;32.80;;
8397;SDS011;4236;54.504;9.588;2022-10-19T09:16:32;34.83;;;33.03;;
8397;SDS011;4236;54.504;9.588;2022-10-19T09:19:01;36.73;;;34.97;;
8397;SDS011;4236;54.504;9.588;2022-10-19T09:21:31;35.50;;;34.00;;
8397;SDS011;4236;54.504;9.588;2022-10-19T09:24:15;35.10;;;33.30;;
8397;SDS011;4236;54.504;9.588;2022-10-19T09:26:53;35.60;;;33.77;;
8397;SDS011;4236;54.504;9.588;2022-10-19T09:29:23;33.50;;;32.10;;
8397;SDS011;4236;54.504;9.588;2022-10-19T09:31:58;33.60;;;32.20;;
8397;SDS011;4236;54.504;9.588;2022-10-19T09:34:28;31.83;;;30.47;;
8397;SDS011;4236;54.504;9.588;2022-10-19T09:37:00;31.07;;;29.77;;
8397;SDS011;4236;54.504;9.588;2022-10-19T09:39:28;30.50;;;28.80;;
8397;SDS011;4236;54.504;9.588;2022-10-19T09:41:57;30.17;;;28.97;;
8397;SDS011;4236;54.504;9.588;2022-10-19T09:44:26;30.13;;;28.90;;
8397;SDS011;4236;54.504;9.588;2022-10-19T09:46:54;30.17;;;28.90;;
8397;SDS011;4236;54.504;9.588;2022-10-19T09:49:38;29.70;;;28.40;;
8397;SDS011;4236;54.504;9.588;2022-10-19T09:52:20;29.13;;;27.97;;
8397;SDS011;4236;54.504;9.588;2022-10-19T09:54:50;32.00;;;30.50;;
8397;SDS011;4236;54.504;9.588;2022-10-19T09:57:27;30.83;;;29.50;;
8397;SDS011;4236;54.504;9.588;2022-10-19T09:59:55;29.03;;;27.93;;
8397;SDS011;4236;54.504;9.588;2022-10-19T10:02:29;29.63;;;28.33;;
8397;SDS011;4236;54.504;9.588;2022-10-19T10:05:03;28.07;;;26.87;;
8397;SDS011;4236;54.504;9.588;2022-10-19T10:07:34;28.00;;;26.60;;
8397;SDS011;4236;54.504;9.588;2022-10-19T10:10:13;28.20;;;26.93;;
8397;SDS011;4236;54.504;9.588;2022-10-19T10:12:51;27.87;;;26.40;;
8397;SDS011;4236;54.504;9.588;2022-10-19T10:15:20;27.90;;;26.67;;
8397;SDS011;4236;54.504;9.588;2022-10-19T10:17:52;27.50;;;26.20;;
8397;SDS011;4236;54.504;9.588;2022-10-19T10:20:23;25.67;;;24.87;;
8397;SDS011;4236;54.504;9.588;2022-10-19T10:22:54;25.50;;;24.50;;
8397;SDS011;4236;54.504;9.588;2022-10-19T10:25:26;25.10;;;24.20;;
8397;SDS011;4236;54.504;9.588;2022-10-19T10:27:57;24.80;;;23.90;;
8397;SDS011;4236;54.504;9.588;2022-10-19T10:30:28;24.20;;;23.40;;
8397;SDS011;4236;54.504;9.588;2022-10-19T10:33:01;23.30;;;22.50;;
8397;SDS011;4236;54.504;9.588;2022-10-19T10:35:47;22.60;;;21.80;;
8397;SDS011;4236;54.504;9.588;2022-10-19T10:38:20;20.50;;;19.80;;
8397;SDS011;4236;54.504;9.588;2022-10-19T10:40:52;20.97;;;20.37;;
8397;SDS011;4236;54.504;9.588;2022-10-19T10:43:34;18.67;;;18.07;;
8397;SDS011;4236;54.504;9.588;2022-10-19T10:46:05;18.90;;;18.13;;
8397;SDS011;4236;54.504;9.588;2022-10-19T10:48:41;17.47;;;16.97;;
8397;SDS011;4236;54.504;9.588;2022-10-19T10:51:18;15.27;;;14.87;;
8397;SDS011;4236;54.504;9.588;2022-10-19T10:53:48;13.70;;;13.40;;
8397;SDS011;4236;54.504;9.588;2022-10-19T10:56:20;12.03;;;11.73;;
8397;SDS011;4236;54.504;9.588;2022-10-19T10:58:55;12.40;;;11.90;;
8397;SDS011;4236;54.504;9.588;2022-10-19T11:01:27;11.10;;;10.70;;
8397;SDS011;4236;54.504;9.588;2022-10-19T11:04:01;10.63;;;10.00;;
8397;SDS011;4236;54.504;9.588;2022-10-19T11:06:33;10.60;;;10.20;;
8397;SDS011;4236;54.504;9.588;2022-10-19T11:09:12;10.13;;;9.80;;
8397;SDS011;4236;54.504;9.588;2022-10-19T11:11:45;9.20;;;9.00;;
8397;SDS011;4236;54.504;9.588;2022-10-19T11:14:24;8.37;;;8.00;;
8397;SDS011;4236;54.504;9.588;2022-10-19T11:16:56;8.57;;;8.37;;
8397;SDS011;4236;54.504;9.588;2022-10-19T11:19:31;8.90;;;8.60;;
8397;SDS011;4236;54.504;9.588;2022-10-19T11:22:04;7.50;;;7.20;;
8397;SDS011;4236;54.504;9.588;2022-10-19T11:24:43;7.40;;;7.10;;
8397;SDS011;4236;54.504;9.588;2022-10-19T11:27:30;7.17;;;6.87;;
8397;SDS011;4236;54.504;9.588;2022-10-19T11:30:09;6.10;;;6.00;;
8397;SDS011;4236;54.504;9.588;2022-10-19T11:32:45;7.37;;;7.07;;
8397;SDS011;4236;54.504;9.588;2022-10-19T11:35:31;6.60;;;6.40;;
8397;SDS011;4236;54.504;9.588;2022-10-19T11:38:15;6.60;;;6.40;;
8397;SDS011;4236;54.504;9.588;2022-10-19T11:40:58;6.80;;;6.70;;
8397;SDS011;4236;54.504;9.588;2022-10-19T11:43:52;5.90;;;5.70;;
8397;SDS011;4236;54.504;9.588;2022-10-19T11:46:33;5.60;;;5.40;;
8397;SDS011;4236;54.504;9.588;2022-10-19T11:49:13;5.63;;;5.40;;
8397;SDS011;4236;54.504;9.588;2022-10-19T11:51:54;5.60;;;5.40;;
8397;SDS011;4236;54.504;9.588;2022-10-19T11:54:31;5.20;;;4.80;;
8397;SDS011;4236;54.504;9.588;2022-10-19T11:57:11;6.23;;;6.13;;
8397;SDS011;4236;54.504;9.588;2022-10-19T11:59:45;6.10;;;6.00;;
8397;SDS011;4236;54.504;9.588;2022-10-19T12:02:50;5.30;;;5.10;;
8397;SDS011;4236;54.504;9.588;2022-10-19T12:05:38;4.90;;;4.80;;
8397;SDS011;4236;54.504;9.588;2022-10-19T12:08:20;5.33;;;5.13;;
8397;SDS011;4236;54.504;9.588;2022-10-19T12:11:00;5.70;;;5.50;;
8397;SDS011;4236;54.504;9.588;2022-10-19T12:13:37;5.30;;;5.10;;
8397;SDS011;4236;54.504;9.588;2022-10-19T12:16:07;5.30;;;5.20;;
8397;SDS011;4236;54.504;9.588;2022-10-19T12:18:38;5.37;;;5.07;;
8397;SDS011;4236;54.504;9.588;2022-10-19T12:21:10;4.80;;;4.60;;
8397;SDS011;4236;54.504;9.588;2022-10-19T12:23:46;4.80;;;4.70;;
8397;SDS011;4236;54.504;9.588;2022-10-19T12:26:15;4.50;;;4.27;;
8397;SDS011;4236;54.504;9.588;2022-10-19T12:28:45;3.90;;;3.80;;
8397;SDS011;4236;54.504;9.588;2022-10-19T12:31:15;4.90;;;4.60;;
8397;SDS011;4236;54.504;9.588;2022-10-19T12:33:45;4.10;;;3.90;;
8397;SDS011;4236;54.504;9.588;2022-10-19T12:36:24;3.83;;;3.73;;
8397;SDS011;4236;54.504;9.588;2022-10-19T12:39:01;3.80;;;3.70;;
8397;SDS011;4236;54.504;9.588;2022-10-19T12:41:39;4.90;;;3.90;;
8397;SDS011;4236;54.504;9.588;2022-10-19T12:44:20;3.83;;;3.63;;
8397;SDS011;4236;54.504;9.588;2022-10-19T12:47:07;3.30;;;3.20;;
8397;SDS011;4236;54.504;9.588;2022-10-19T12:49:44;3.00;;;2.90;;
8397;SDS011;4236;54.504;9.588;2022-10-19T12:52:15;5.60;;;3.50;;
8397;SDS011;4236;54.504;9.588;2022-10-19T12:55:20;3.43;;;3.33;;
8397;SDS011;4236;54.504;9.588;2022-10-19T12:57:55;3.10;;;2.97;;
8397;SDS011;4236;54.504;9.588;2022-10-19T13:00:27;2.97;;;2.87;;
8397;SDS011;4236;54.504;9.588;2022-10-19T13:02:58;3.37;;;3.27;;
8397;SDS011;4236;54.504;9.588;2022-10-19T13:05:30;3.80;;;3.53;;
8397;SDS011;4236;54.504;9.588;2022-10-19T13:07:59;3.60;;;3.50;;
8397;SDS011;4236;54.504;9.588;2022-10-19T13:10:29;3.30;;;3.20;;
8397;SDS011;4236;54.504;9.588;2022-10-19T13:12:58;3.07;;;2.97;;
8397;SDS011;4236;54.504;9.588;2022-10-19T13:21:46;3.57;;;3.37;;
8397;SDS011;4236;54.504;9.588;2022-10-19T13:24:26;3.00;;;2.80;;
8397;SDS011;4236;54.504;9.588;2022-10-19T13:30:06;5.13;;;3.00;;
8397;SDS011;4236;54.504;9.588;2022-10-19T13:33:34;3.00;;;2.90;;
8397;SDS011;4236;54.504;9.588;2022-10-19T13:36:10;3.20;;;3.10;;
8397;SDS011;4236;54.504;9.588;2022-10-19T13:38:39;2.90;;;2.80;;
8397;SDS011;4236;54.504;9.588;2022-10-19T13:41:09;3.40;;;3.30;;
8397;SDS011;4236;54.504;9.588;2022-10-19T13:43:40;4.03;;;3.90;;
8397;SDS011;4236;54.504;9.588;2022-10-19T13:46:19;3.07;;;2.87;;
8397;SDS011;4236;54.504;9.588;2022-10-19T13:49:03;3.20;;;3.10;;
8397;SDS011;4236;54.504;9.588;2022-10-19T13:52:01;3.90;;;3.50;;
8397;SDS011;4236;54.504;9.588;2022-10-19T13:54:44;3.20;;;3.00;;
8397;SDS011;4236;54.504;9.588;2022-10-19T13:57:28;2.50;;;2.40;;
8397;SDS011;4236;54.504;9.588;2022-10-19T14:00:14;2.70;;;2.60;;
8397;SDS011;4236;54.504;9.588;2022-10-19T14:02:57;3.10;;;2.90;;
8397;SDS011;4236;54.504;9.588;2022-10-19T14:05:42;2.47;;;2.37;;
8397;SDS011;4236;54.504;9.588;2022-10-19T14:08:23;2.80;;;2.70;;
8397;SDS011;4236;54.504;9.588;2022-10-19T14:11:12;2.80;;;2.70;;
8397;SDS011;4236;54.504;9.588;2022-10-19T14:13:42;3.30;;;2.63;;
8397;SDS011;4236;54.504;9.588;2022-10-19T14:16:16;3.00;;;2.90;;
8397;SDS011;4236;54.504;9.588;2022-10-19T14:18:52;2.70;;;2.60;;
8397;SDS011;4236;54.504;9.588;2022-10-19T14:21:31;2.67;;;2.57;;
8397;SDS011;4236;54.504;9.588;2022-10-19T14:24:02;2.73;;;2.60;;
8397;SDS011;4236;54.504;9.588;2022-10-19T14:26:46;3.27;;;2.50;;
8397;SDS011;4236;54.504;9.588;2022-10-19T14:29:13;2.50;;;2.40;;
8397;SDS011;4236;54.504;9.588;2022-10-19T14:31:41;2.77;;;2.67;;
8397;SDS011;4236;54.504;9.588;2022-10-19T14:34:10;3.13;;;3.03;;
8397;SDS011;4236;54.504;9.588;2022-10-19T14:36:42;2.70;;;2.60;;
8397;SDS011;4236;54.504;9.588;2022-10-19T14:39:22;2.80;;;2.60;;
8397;SDS011;4236;54.504;9.588;2022-10-19T14:41:53;2.77;;;2.67;;
8397;SDS011;4236;54.504;9.588;2022-10-19T14:44:29;2.70;;;2.60;;
8397;SDS011;4236;54.504;9.588;2022-10-19T14:47:05;2.40;;;2.30;;
8397;SDS011;4236;54.504;9.588;2022-10-19T14:49:43;2.90;;;2.80;;
8397;SDS011;4236;54.504;9.588;2022-10-19T14:52:12;2.53;;;2.33;;
8397;SDS011;4236;54.504;9.588;2022-10-19T14:54:46;2.63;;;2.53;;
8397;SDS011;4236;54.504;9.588;2022-10-19T14:57:16;2.10;;;2.00;;
8397;SDS011;4236;54.504;9.588;2022-10-19T14:59:50;3.73;;;2.30;;
8397;SDS011;4236;54.504;9.588;2022-10-19T15:02:20;2.73;;;2.53;;
8397;SDS011;4236;54.504;9.588;2022-10-19T15:04:53;2.10;;;2.00;;
8397;SDS011;4236;54.504;9.588;2022-10-19T15:07:24;2.90;;;2.20;;
8397;SDS011;4236;54.504;9.588;2022-10-19T15:09:57;2.63;;;2.53;;
8397;SDS011;4236;54.504;9.588;2022-10-19T15:12:27;2.60;;;2.50;;
8397;SDS011;4236;54.504;9.588;2022-10-19T15:14:56;2.80;;;2.70;;
8397;SDS011;4236;54.504;9.588;2022-10-19T15:17:25;2.30;;;2.20;;
8397;SDS011;4236;54.504;9.588;2022-10-19T15:19:56;2.70;;;2.50;;
8397;SDS011;4236;54.504;9.588;2022-10-19T15:22:35;2.77;;;2.60;;
8397;SDS011;4236;54.504;9.588;2022-10-19T15:30:56;3.10;;;3.00;;
8397;SDS011;4236;54.504;9.588;2022-10-19T15:33:25;3.10;;;2.90;;
8397;SDS011;4236;54.504;9.588;2022-10-19T15:36:02;2.93;;;2.77;;
8397;SDS011;4236;54.504;9.588;2022-10-19T15:38:32;3.53;;;3.00;;
8397;SDS011;4236;54.504;9.588;2022-10-19T15:41:01;3.00;;;2.80;;
8397;SDS011;4236;54.504;9.588;2022-10-19T15:43:36;2.80;;;2.70;;
8397;SDS011;4236;54.504;9.588;2022-10-19T15:46:19;3.33;;;3.10;;
8397;SDS011;4236;54.504;9.588;2022-10-19T15:48:53;3.83;;;3.70;;